Time,TemperatureF,DewpointF,PressureIn,WindDirection,WindDirectionDegrees,WindSpeedMPH,WindSpeedGustMPH,Humidity,HourlyPrecipIn,Conditions,Clouds,dailyrainin,SoftwareType,DateUTC
2013-04-25 00:01:00,69.0,57.2,29.91,West,266,2.0,3.0,66,0.00,,,0.00,Wunderground v.1.15,2013-04-25 04:01:00,
2013-04-25 00:02:00,69.0,57.2,29.91,West,266,2.0,3.0,66,0.00,,,0.00,Wunderground v.1.15,2013-04-25 04:02:00,
2013-04-25 00:03:00,69.0,57.2,29.90,North,3,2.0,3.0,66,0.00,,,0.00,Wunderground v.1.15,2013-04-25 04:03:00,
2013-04-25 00:04:00,69.0,57.2,29.91,West,269,2.0,3.0,66,0.00,,,0.00,Wunderground v.1.15,2013-04-25 04:04:00,
2013-04-25 00:08:00,68.9,57.1,29.91,West,269,1.0,3.0,66,0.00,,,0.00,Wunderground v.1.15,2013-04-25 04:08:00,
2013-04-25 00:13:00,68.8,57.4,29.92,WNW,303,1.0,3.0,67,0.00,,,0.00,Wunderground v.1.15,2013-04-25 04:13:00,
2013-04-25 00:19:00,68.4,57.8,29.93,NW,316,4.0,15.0,69,0.00,,,0.00,Wunderground v.1.15,2013-04-25 04:19:00,
2013-04-25 00:24:00,67.9,57.8,29.93,NW,325,6.0,13.0,70,0.00,,,0.00,Wunderground v.1.15,2013-04-25 04:24:00,
2013-04-25 00:29:00,67.0,56.1,29.94,NNW,337,5.0,13.0,68,0.00,,,0.00,Wunderground v.1.15,2013-04-25 04:29:00,
2013-04-25 00:34:00,66.1,55.2,29.94,NW,304,6.0,11.0,68,0.00,,,0.00,Wunderground v.1.15,2013-04-25 04:34:00,
2013-04-25 00:39:00,65.4,54.2,29.95,West,271,6.0,11.0,67,0.00,,,0.00,Wunderground v.1.15,2013-04-25 04:39:00,
2013-04-25 00:45:00,64.9,53.7,29.96,NNW,328,5.0,7.0,67,0.00,,,0.00,Wunderground v.1.15,2013-04-25 04:45:00,
2013-04-25 00:50:00,64.4,52.8,29.96,NNE,17,5.0,6.0,66,0.00,,,0.00,Wunderground v.1.15,2013-04-25 04:50:00,
2013-04-25 00:55:00,64.0,52.0,29.97,NW,310,6.0,11.0,65,0.00,,,0.00,Wunderground v.1.15,2013-04-25 04:55:00,
2013-04-25 01:00:00,63.5,50.7,29.97,NW,307,7.0,9.0,63,0.00,,,0.00,Wunderground v.1.15,2013-04-25 05:00:00,
2013-04-25 01:05:00,62.9,49.7,29.97,West,261,7.0,10.0,62,0.00,,,0.00,Wunderground v.1.15,2013-04-25 05:05:00,
2013-04-25 01:11:00,62.3,49.5,29.97,NW,313,6.0,9.0,63,0.00,,,0.00,Wunderground v.1.15,2013-04-25 05:11:00,
2013-04-25 01:16:00,62.1,49.4,29.98,North,355,5.0,11.0,63,0.00,,,0.00,Wunderground v.1.15,2013-04-25 05:16:00,
2013-04-25 01:21:00,61.9,49.6,29.98,NW,313,5.0,9.0,64,0.00,,,0.00,Wunderground v.1.15,2013-04-25 05:21:00,
2013-04-25 01:26:00,61.4,48.7,29.99,NW,326,6.0,15.0,63,0.00,,,0.00,Wunderground v.1.15,2013-04-25 05:26:00,
2013-04-25 01:31:00,60.9,48.2,29.99,WNW,286,7.0,9.0,63,0.00,,,0.00,Wunderground v.1.15,2013-04-25 05:31:00,
2013-04-25 01:37:00,60.3,47.2,30.00,WNW,294,7.0,9.0,62,0.00,,,0.00,Wunderground v.1.15,2013-04-25 05:37:00,
2013-04-25 01:42:00,59.8,46.7,30.00,NW,315,7.0,9.0,62,0.00,,,0.00,Wunderground v.1.15,2013-04-25 05:42:00,
2013-04-25 01:47:00,59.1,45.7,30.00,NW,326,8.0,14.0,61,0.00,,,0.00,Wunderground v.1.15,2013-04-25 05:47:00,
2013-04-25 01:52:00,58.6,45.2,30.00,North,357,8.0,15.0,61,0.00,,,0.00,Wunderground v.1.15,2013-04-25 05:52:00,
2013-04-25 01:57:00,58.2,44.8,30.01,NNW,334,7.0,15.0,61,0.00,,,0.00,Wunderground v.1.15,2013-04-25 05:57:00,
2013-04-25 02:03:00,57.9,44.5,30.01,West,280,5.0,10.0,61,0.00,,,0.00,Wunderground v.1.15,2013-04-25 06:03:00,
2013-04-25 02:08:00,57.7,43.9,30.01,NNW,342,5.0,10.0,60,0.00,,,0.00,Wunderground v.1.15,2013-04-25 06:08:00,
2013-04-25 02:13:00,57.5,43.7,30.02,NNW,342,5.0,10.0,60,0.00,,,0.00,Wunderground v.1.15,2013-04-25 06:13:00,
2013-04-25 02:18:00,57.2,43.0,30.02,NNE,16,6.0,10.0,59,0.00,,,0.00,Wunderground v.1.15,2013-04-25 06:18:00,
2013-04-25 02:23:00,57.0,43.2,30.02,NW,325,5.0,10.0,60,0.00,,,0.00,Wunderground v.1.15,2013-04-25 06:23:00,
2013-04-25 02:29:00,56.7,43.4,30.02,West,276,5.0,10.0,61,0.00,,,0.00,Wunderground v.1.15,2013-04-25 06:29:00,
2013-04-25 02:34:00,56.5,43.6,30.03,West,264,5.0,10.0,62,0.00,,,0.00,Wunderground v.1.15,2013-04-25 06:34:00,
2013-04-25 02:39:00,56.2,43.8,30.03,West,272,5.0,10.0,63,0.00,,,0.00,Wunderground v.1.15,2013-04-25 06:39:00,
2013-04-25 02:44:00,55.9,43.9,30.03,NW,320,5.0,10.0,64,0.00,,,0.00,Wunderground v.1.15,2013-04-25 06:44:00,
2013-04-25 02:49:00,55.8,43.8,30.04,North,1,4.0,11.0,64,0.00,,,0.00,Wunderground v.1.15,2013-04-25 06:49:00,
2013-04-25 02:54:00,55.7,44.1,30.04,NW,318,5.0,10.0,65,0.00,,,0.00,Wunderground v.1.15,2013-04-25 06:54:00,
2013-04-25 03:00:00,55.6,44.0,30.04,NNW,338,6.0,10.0,65,0.00,,,0.00,Wunderground v.1.15,2013-04-25 07:00:00,
2013-04-25 03:05:00,55.3,44.9,30.05,North,354,6.0,12.0,68,0.00,,,0.00,Wunderground v.1.15,2013-04-25 07:05:00,
2013-04-25 03:10:00,54.3,45.8,30.06,North,349,6.0,12.0,73,0.00,,,0.01,Wunderground v.1.15,2013-04-25 07:10:00,
2013-04-25 03:15:00,53.3,45.9,30.06,North,1,5.0,12.0,76,0.00,,,0.01,Wunderground v.1.15,2013-04-25 07:15:00,
2013-04-25 03:20:00,52.2,45.2,30.06,NNW,333,6.0,12.0,77,0.00,,,0.01,Wunderground v.1.15,2013-04-25 07:20:00,
2013-04-25 03:25:00,51.5,44.9,30.06,NNW,333,7.0,12.0,78,0.00,,,0.01,Wunderground v.1.15,2013-04-25 07:25:00,
2013-04-25 03:30:00,51.3,45.0,30.06,NW,324,7.0,7.0,79,0.00,,,0.01,Wunderground v.1.15,2013-04-25 07:30:00,
2013-04-25 03:35:00,51.2,44.6,30.07,NNW,328,5.0,12.0,78,0.00,,,0.01,Wunderground v.1.15,2013-04-25 07:35:00,
2013-04-25 03:40:00,51.0,44.0,30.07,NNW,338,5.0,12.0,77,0.00,,,0.01,Wunderground v.1.15,2013-04-25 07:40:00,
2013-04-25 03:45:00,51.0,43.7,30.08,WNW,301,5.0,12.0,76,0.00,,,0.01,Wunderground v.1.15,2013-04-25 07:45:00,
2013-04-25 03:51:00,51.0,42.6,30.08,NNW,347,6.0,12.0,73,0.00,,,0.01,Wunderground v.1.15,2013-04-25 07:51:00,
2013-04-25 03:56:00,51.0,42.3,30.08,NW,305,6.0,12.0,72,0.00,,,0.01,Wunderground v.1.15,2013-04-25 07:56:00,
2013-04-25 04:01:00,51.0,41.9,30.08,NNW,342,7.0,8.0,71,0.00,,,0.01,Wunderground v.1.15,2013-04-25 08:01:00,
2013-04-25 04:07:00,50.9,41.1,30.09,NW,319,6.0,9.0,69,0.00,,,0.01,Wunderground v.1.15,2013-04-25 08:07:00,
2013-04-25 04:12:00,50.9,40.3,30.09,NNW,333,5.0,8.0,67,0.00,,,0.01,Wunderground v.1.15,2013-04-25 08:12:00,
2013-04-25 04:17:00,50.9,40.3,30.10,NNW,342,6.0,8.0,67,0.00,,,0.01,Wunderground v.1.15,2013-04-25 08:17:00,
2013-04-25 04:22:00,50.9,40.3,30.10,NNE,18,6.0,8.0,67,0.00,,,0.01,Wunderground v.1.15,2013-04-25 08:22:00,
2013-04-25 04:27:00,50.9,39.9,30.11,NW,311,5.0,8.0,66,0.00,,,0.01,Wunderground v.1.15,2013-04-25 08:27:00,
2013-04-25 04:32:00,50.9,40.3,30.11,NNW,328,5.0,9.0,67,0.00,,,0.01,Wunderground v.1.15,2013-04-25 08:32:00,
2013-04-25 04:37:00,50.8,40.2,30.12,NW,315,5.0,9.0,67,0.00,,,0.01,Wunderground v.1.15,2013-04-25 08:37:00,
2013-04-25 04:43:00,50.6,40.0,30.12,NW,315,6.0,7.0,67,0.00,,,0.01,Wunderground v.1.15,2013-04-25 08:43:00,
2013-04-25 04:48:00,50.5,39.9,30.12,NW,305,5.0,7.0,67,0.00,,,0.01,Wunderground v.1.15,2013-04-25 08:48:00,
2013-04-25 04:53:00,50.4,39.9,30.13,NNW,330,5.0,9.0,67,0.00,,,0.01,Wunderground v.1.15,2013-04-25 08:53:00,
2013-04-25 04:58:00,50.4,39.9,30.13,NNW,339,5.0,9.0,67,0.00,,,0.01,Wunderground v.1.15,2013-04-25 08:58:00,
2013-04-25 05:03:00,50.5,40.3,30.13,NW,326,6.0,11.0,68,0.00,,,0.01,Wunderground v.1.15,2013-04-25 09:03:00,
2013-04-25 05:09:00,50.4,39.5,30.14,WNW,285,7.0,11.0,66,0.00,,,0.01,Wunderground v.1.15,2013-04-25 09:09:00,
2013-04-25 05:14:00,50.3,39.4,30.14,NW,312,7.0,11.0,66,0.00,,,0.01,Wunderground v.1.15,2013-04-25 09:14:00,
2013-04-25 05:19:00,50.1,39.2,30.15,NNW,330,5.0,11.0,66,0.00,,,0.01,Wunderground v.1.15,2013-04-25 09:19:00,
2013-04-25 05:24:00,50.1,38.8,30.16,NNW,345,5.0,11.0,65,0.00,,,0.01,Wunderground v.1.15,2013-04-25 09:24:00,
2013-04-25 05:29:00,49.9,38.2,30.16,WNW,301,5.0,11.0,64,0.00,,,0.01,Wunderground v.1.15,2013-04-25 09:29:00,
2013-04-25 05:35:00,49.7,37.6,30.17,NW,325,6.0,11.0,63,0.00,,,0.01,Wunderground v.1.15,2013-04-25 09:35:00,
2013-04-25 05:40:00,49.5,37.0,30.17,NW,321,6.0,11.0,62,0.00,,,0.01,Wunderground v.1.15,2013-04-25 09:40:00,
2013-04-25 05:45:00,49.4,37.3,30.18,NNW,336,6.0,11.0,63,0.00,,,0.01,Wunderground v.1.15,2013-04-25 09:45:00,
2013-04-25 05:50:00,49.3,37.2,30.18,NNW,334,5.0,11.0,63,0.00,,,0.01,Wunderground v.1.15,2013-04-25 09:50:00,
2013-04-25 05:55:00,49.2,37.1,30.18,WNW,300,5.0,11.0,63,0.00,,,0.01,Wunderground v.1.15,2013-04-25 09:55:00,
2013-04-25 06:01:00,49.1,37.0,30.19,WNW,288,5.0,5.0,63,0.00,,,0.01,Wunderground v.1.15,2013-04-25 10:01:00,
2013-04-25 06:07:00,49.0,37.3,30.19,NW,320,5.0,8.0,64,0.00,,,0.01,Wunderground v.1.15,2013-04-25 10:07:00,
2013-04-25 06:12:00,48.8,36.8,30.19,WNW,301,5.0,5.0,63,0.00,,,0.01,Wunderground v.1.15,2013-04-25 10:12:00,
2013-04-25 06:18:00,48.7,36.7,30.20,West,269,4.0,6.0,63,0.00,,,0.01,Wunderground v.1.15,2013-04-25 10:18:00,
2013-04-25 06:23:00,48.5,36.1,30.20,North,357,4.0,5.0,62,0.00,,,0.01,Wunderground v.1.15,2013-04-25 10:23:00,
2013-04-25 06:28:00,48.4,36.4,30.20,NNW,334,5.0,8.0,63,0.00,,,0.01,Wunderground v.1.15,2013-04-25 10:28:00,
2013-04-25 06:33:00,48.3,36.7,30.20,NW,319,5.0,6.0,64,0.00,,,0.01,Wunderground v.1.15,2013-04-25 10:33:00,
2013-04-25 06:38:00,48.3,36.7,30.21,North,349,4.0,6.0,64,0.00,,,0.01,Wunderground v.1.15,2013-04-25 10:38:00,
2013-04-25 06:44:00,48.2,36.6,30.21,North,355,4.0,5.0,64,0.00,,,0.01,Wunderground v.1.15,2013-04-25 10:44:00,
2013-04-25 06:49:00,48.2,36.2,30.21,NW,324,4.0,7.0,63,0.00,,,0.01,Wunderground v.1.15,2013-04-25 10:49:00,
2013-04-25 06:54:00,48.2,36.6,30.21,NW,315,5.0,10.0,64,0.00,,,0.01,Wunderground v.1.15,2013-04-25 10:54:00,
2013-04-25 06:59:00,48.3,36.7,30.21,NE,36,5.0,10.0,64,0.00,,,0.01,Wunderground v.1.15,2013-04-25 10:59:00,
2013-04-25 07:04:00,48.3,36.3,30.21,NNW,327,4.0,9.0,63,0.00,,,0.01,Wunderground v.1.15,2013-04-25 11:04:00,
2013-04-25 07:10:00,48.4,36.8,30.22,North,7,4.0,9.0,64,0.00,,,0.01,Wunderground v.1.15,2013-04-25 11:10:00,
2013-04-25 07:15:00,48.4,36.8,30.22,NW,313,4.0,9.0,64,0.00,,,0.01,Wunderground v.1.15,2013-04-25 11:15:00,
2013-04-25 07:20:00,48.5,36.1,30.22,NW,315,4.0,9.0,62,0.00,,,0.01,Wunderground v.1.15,2013-04-25 11:20:00,
2013-04-25 07:25:00,48.6,36.2,30.23,NNW,334,4.0,9.0,62,0.00,,,0.01,Wunderground v.1.15,2013-04-25 11:25:00,
2013-04-25 07:30:00,48.6,36.2,30.23,North,359,4.0,9.0,62,0.00,,,0.01,Wunderground v.1.15,2013-04-25 11:30:00,
2013-04-25 07:36:00,48.7,35.8,30.23,North,10,5.0,9.0,61,0.00,,,0.01,Wunderground v.1.15,2013-04-25 11:36:00,
2013-04-25 07:41:00,48.8,36.4,30.23,NNW,345,4.0,10.0,62,0.00,,,0.01,Wunderground v.1.15,2013-04-25 11:41:00,
2013-04-25 07:46:00,48.8,35.9,30.23,NNW,346,5.0,10.0,61,0.00,,,0.01,Wunderground v.1.15,2013-04-25 11:46:00,
2013-04-25 07:51:00,49.0,36.5,30.23,NNW,336,4.0,9.0,62,0.00,,,0.01,Wunderground v.1.15,2013-04-25 11:51:00,
2013-04-25 07:56:00,49.3,36.8,30.24,NNW,334,3.0,9.0,62,0.00,,,0.01,Wunderground v.1.15,2013-04-25 11:56:00,
2013-04-25 08:01:00,49.4,36.1,30.24,North,351,4.0,11.0,60,0.00,,,0.01,Wunderground v.1.15,2013-04-25 12:01:00,
2013-04-25 08:07:00,49.3,35.6,30.24,North,360,6.0,11.0,59,0.00,,,0.01,Wunderground v.1.15,2013-04-25 12:07:00,
2013-04-25 08:12:00,49.3,35.6,30.24,NW,318,6.0,13.0,59,0.00,,,0.01,Wunderground v.1.15,2013-04-25 12:12:00,
2013-04-25 08:17:00,49.2,35.9,30.24,NNE,12,7.0,13.0,60,0.00,,,0.01,Wunderground v.1.15,2013-04-25 12:17:00,
2013-04-25 08:22:00,49.3,36.0,30.24,North,1,7.0,11.0,60,0.00,,,0.01,Wunderground v.1.15,2013-04-25 12:22:00,
2013-04-25 08:28:00,49.5,36.2,30.25,NNW,348,6.0,11.0,60,0.00,,,0.01,Wunderground v.1.15,2013-04-25 12:28:00,
2013-04-25 08:33:00,49.5,36.2,30.25,NW,321,7.0,12.0,60,0.00,,,0.01,Wunderground v.1.15,2013-04-25 12:33:00,
2013-04-25 08:38:00,49.5,35.8,30.25,North,351,7.0,12.0,59,0.00,,,0.01,Wunderground v.1.15,2013-04-25 12:38:00,
2013-04-25 08:43:00,49.7,36.4,30.25,NNW,335,5.0,11.0,60,0.00,,,0.01,Wunderground v.1.15,2013-04-25 12:43:00,
2013-04-25 08:48:00,50.0,35.8,30.25,NNE,20,6.0,11.0,58,0.00,,,0.01,Wunderground v.1.15,2013-04-25 12:48:00,
2013-04-25 08:53:00,50.1,36.7,30.25,NW,309,7.0,11.0,60,0.00,,,0.01,Wunderground v.1.15,2013-04-25 12:53:00,
2013-04-25 08:58:00,50.3,36.1,30.25,NW,326,6.0,11.0,58,0.00,,,0.01,Wunderground v.1.15,2013-04-25 12:58:00,
2013-04-25 09:04:00,50.3,36.1,30.25,NNW,328,6.0,7.0,58,0.00,,,0.01,Wunderground v.1.15,2013-04-25 13:04:00,
2013-04-25 09:09:00,50.8,37.0,30.25,NNW,346,5.0,9.0,59,0.00,,,0.01,Wunderground v.1.15,2013-04-25 13:09:00,
2013-04-25 09:14:00,51.2,36.5,30.25,North,360,5.0,7.0,57,0.00,,,0.01,Wunderground v.1.15,2013-04-25 13:14:00,
2013-04-25 09:19:00,51.3,35.7,30.25,NW,308,5.0,7.0,55,0.00,,,0.01,Wunderground v.1.15,2013-04-25 13:19:00,
2013-04-25 09:25:00,51.5,35.4,30.25,NNE,28,5.0,7.0,54,0.00,,,0.01,Wunderground v.1.15,2013-04-25 13:25:00,
2013-04-25 09:30:00,52.1,37.3,30.25,NNW,348,4.0,7.0,57,0.00,,,0.01,Wunderground v.1.15,2013-04-25 13:30:00,
2013-04-25 09:35:00,52.9,36.7,30.25,NW,326,4.0,7.0,54,0.00,,,0.01,Wunderground v.1.15,2013-04-25 13:35:00,
2013-04-25 09:40:00,53.2,37.0,30.25,North,349,4.0,7.0,54,0.00,,,0.01,Wunderground v.1.15,2013-04-25 13:40:00,
2013-04-25 09:45:00,52.9,36.2,30.25,NE,50,4.0,7.0,53,0.00,,,0.01,Wunderground v.1.15,2013-04-25 13:45:00,
2013-04-25 09:50:00,53.1,36.9,30.26,NNW,334,4.0,7.0,54,0.00,,,0.01,Wunderground v.1.15,2013-04-25 13:50:00,
2013-04-25 09:55:00,53.0,35.8,30.26,North,9,4.0,8.0,52,0.00,,,0.01,Wunderground v.1.15,2013-04-25 13:55:00,
2013-04-25 10:01:00,53.4,36.7,30.25,West,276,4.0,7.0,53,0.00,,,0.01,Wunderground v.1.15,2013-04-25 14:01:00,
2013-04-25 10:07:00,53.7,37.0,30.26,WNW,299,4.0,7.0,53,0.00,,,0.01,Wunderground v.1.15,2013-04-25 14:07:00,
2013-04-25 10:12:00,53.7,36.5,30.26,North,9,4.0,7.0,52,0.00,,,0.01,Wunderground v.1.15,2013-04-25 14:12:00,
2013-04-25 10:17:00,54.1,36.4,30.26,NNW,332,4.0,7.0,51,0.00,,,0.01,Wunderground v.1.15,2013-04-25 14:17:00,
2013-04-25 10:22:00,54.3,36.0,30.26,North,3,4.0,7.0,50,0.00,,,0.01,Wunderground v.1.15,2013-04-25 14:22:00,
2013-04-25 10:27:00,54.6,36.8,30.26,SE,125,4.0,7.0,51,0.00,,,0.01,Wunderground v.1.15,2013-04-25 14:27:00,
2013-04-25 10:32:00,55.1,36.8,30.26,NNE,14,3.0,7.0,50,0.00,,,0.01,Wunderground v.1.15,2013-04-25 14:32:00,
2013-04-25 10:38:00,55.4,37.1,30.26,NNW,334,3.0,7.0,50,0.00,,,0.01,Wunderground v.1.15,2013-04-25 14:38:00,
2013-04-25 10:43:00,56.3,36.3,30.26,WNW,288,2.0,7.0,47,0.00,,,0.01,Wunderground v.1.15,2013-04-25 14:43:00,
2013-04-25 10:48:00,56.8,37.8,30.26,North,353,2.0,7.0,49,0.00,,,0.01,Wunderground v.1.15,2013-04-25 14:48:00,
2013-04-25 10:53:00,56.9,37.4,30.26,East,86,3.0,7.0,48,0.00,,,0.01,Wunderground v.1.15,2013-04-25 14:53:00,
2013-04-25 10:58:00,56.8,37.3,30.26,NE,34,3.0,7.0,48,0.00,,,0.01,Wunderground v.1.15,2013-04-25 14:58:00,
2013-04-25 11:04:00,56.6,36.6,30.26,NNE,30,2.0,4.0,47,0.00,,,0.01,Wunderground v.1.15,2013-04-25 15:04:00,
2013-04-25 11:09:00,57.1,39.1,30.26,ENE,66,2.0,4.0,51,0.00,,,0.01,Wunderground v.1.15,2013-04-25 15:09:00,
2013-04-25 11:14:00,58.0,38.9,30.26,ESE,111,2.0,3.0,49,0.00,,,0.01,Wunderground v.1.15,2013-04-25 15:14:00,
2013-04-25 11:19:00,57.9,36.7,30.26,ENE,72,2.0,6.0,45,0.00,,,0.01,Wunderground v.1.15,2013-04-25 15:19:00,
2013-04-25 11:24:00,58.2,36.9,30.26,WNW,300,3.0,4.0,45,0.00,,,0.01,Wunderground v.1.15,2013-04-25 15:24:00,
2013-04-25 11:30:00,58.8,38.1,30.26,NNW,334,3.0,3.0,46,0.00,,,0.01,Wunderground v.1.15,2013-04-25 15:30:00,
2013-04-25 11:35:00,58.8,36.3,30.26,East,100,3.0,6.0,43,0.00,,,0.01,Wunderground v.1.15,2013-04-25 15:35:00,
2013-04-25 11:40:00,58.2,35.8,30.25,NW,324,4.0,5.0,43,0.00,,,0.01,Wunderground v.1.15,2013-04-25 15:40:00,
2013-04-25 11:45:00,58.9,37.6,30.25,NW,326,4.0,5.0,45,0.00,,,0.01,Wunderground v.1.15,2013-04-25 15:45:00,
2013-04-25 11:50:00,59.5,37.0,30.25,North,9,3.0,3.0,43,0.00,,,0.01,Wunderground v.1.15,2013-04-25 15:50:00,
2013-04-25 11:56:00,59.3,36.8,30.25,WSW,241,4.0,5.0,43,0.00,,,0.01,Wunderground v.1.15,2013-04-25 15:56:00,
2013-04-25 12:01:00,59.3,36.2,30.25,NNW,340,4.0,7.0,42,0.00,,,0.01,Wunderground v.1.15,2013-04-25 16:01:00,
2013-04-25 12:07:00,59.1,36.0,30.25,NNE,24,4.0,7.0,42,0.00,,,0.01,Wunderground v.1.15,2013-04-25 16:07:00,
2013-04-25 12:13:00,60.5,36.0,30.25,North,353,3.0,7.0,40,0.00,,,0.01,Wunderground v.1.15,2013-04-25 16:13:00,
2013-04-25 12:18:00,60.5,34.7,30.24,NNW,344,3.0,7.0,38,0.00,,,0.01,Wunderground v.1.15,2013-04-25 16:18:00,
2013-04-25 12:23:00,61.0,38.3,30.24,NNW,344,2.0,7.0,43,0.00,,,0.01,Wunderground v.1.15,2013-04-25 16:23:00,
2013-04-25 12:28:00,61.3,36.1,30.24,NE,50,2.0,7.0,39,0.00,,,0.01,Wunderground v.1.15,2013-04-25 16:28:00,
2013-04-25 12:33:00,60.7,36.2,30.24,NW,325,3.0,7.0,40,0.00,,,0.01,Wunderground v.1.15,2013-04-25 16:33:00,
2013-04-25 12:39:00,61.7,38.4,30.24,NW,304,4.0,7.0,42,0.00,,,0.01,Wunderground v.1.15,2013-04-25 16:39:00,
2013-04-25 12:44:00,62.3,35.7,30.24,WNW,299,2.0,7.0,37,0.00,,,0.01,Wunderground v.1.15,2013-04-25 16:44:00,
2013-04-25 12:49:00,62.3,38.3,30.24,NNE,16,2.0,7.0,41,0.00,,,0.01,Wunderground v.1.15,2013-04-25 16:49:00,
2013-04-25 12:54:00,62.2,38.2,30.24,NE,55,2.0,7.0,41,0.00,,,0.01,Wunderground v.1.15,2013-04-25 16:54:00,
2013-04-25 12:59:00,62.3,37.7,30.24,East,84,2.0,7.0,40,0.00,,,0.01,Wunderground v.1.15,2013-04-25 16:59:00,
2013-04-25 13:05:00,61.7,41.3,30.23,ENE,77,3.0,7.0,47,0.00,,,0.01,Wunderground v.1.15,2013-04-25 17:05:00,
2013-04-25 13:10:00,60.4,41.1,30.24,East,99,4.0,4.0,49,0.00,,,0.01,Wunderground v.1.15,2013-04-25 17:10:00,
2013-04-25 13:15:00,59.6,41.9,30.23,East,90,4.0,5.0,52,0.00,,,0.01,Wunderground v.1.15,2013-04-25 17:15:00,
2013-04-25 13:20:00,59.2,41.6,30.23,ESE,115,4.0,4.0,52,0.00,,,0.01,Wunderground v.1.15,2013-04-25 17:20:00,
2013-04-25 13:25:00,59.1,42.0,30.23,East,80,4.0,5.0,53,0.00,,,0.01,Wunderground v.1.15,2013-04-25 17:25:00,
2013-04-25 13:31:00,59.2,42.1,30.23,ENE,64,4.0,6.0,53,0.00,,,0.01,Wunderground v.1.15,2013-04-25 17:31:00,
2013-04-25 13:36:00,58.7,42.1,30.23,East,87,4.0,6.0,54,0.00,,,0.01,Wunderground v.1.15,2013-04-25 17:36:00,
2013-04-25 13:41:00,58.0,41.4,30.23,ENE,72,5.0,6.0,54,0.00,,,0.01,Wunderground v.1.15,2013-04-25 17:41:00,
2013-04-25 13:46:00,57.4,41.4,30.22,East,83,6.0,6.0,55,0.00,,,0.01,Wunderground v.1.15,2013-04-25 17:46:00,
2013-04-25 13:51:00,57.4,42.7,30.23,ENE,76,6.0,6.0,58,0.00,,,0.01,Wunderground v.1.15,2013-04-25 17:51:00,
2013-04-25 13:57:00,57.5,41.4,30.22,ENE,78,6.0,6.0,55,0.00,,,0.01,Wunderground v.1.15,2013-04-25 17:57:00,
2013-04-25 14:02:00,57.3,41.7,30.22,ESE,103,6.0,8.0,56,0.00,,,0.01,Wunderground v.1.15,2013-04-25 18:02:00,
2013-04-25 14:07:00,57.2,43.0,30.22,ENE,61,6.0,8.0,59,0.00,,,0.01,Wunderground v.1.15,2013-04-25 18:07:00,
2013-04-25 14:12:00,57.2,42.1,30.22,East,95,5.0,8.0,57,0.00,,,0.01,Wunderground v.1.15,2013-04-25 18:12:00,
2013-04-25 14:17:00,57.2,42.1,30.22,ENE,67,5.0,9.0,57,0.00,,,0.01,Wunderground v.1.15,2013-04-25 18:17:00,
2013-04-25 14:23:00,57.3,41.7,30.22,East,88,5.0,8.0,56,0.00,,,0.01,Wunderground v.1.15,2013-04-25 18:23:00,
2013-04-25 14:28:00,57.5,41.4,30.22,ENE,76,5.0,8.0,55,0.00,,,0.01,Wunderground v.1.15,2013-04-25 18:28:00,
2013-04-25 14:33:00,57.7,42.1,30.22,East,95,5.0,8.0,56,0.00,,,0.01,Wunderground v.1.15,2013-04-25 18:33:00,
2013-04-25 14:38:00,58.1,42.0,30.21,ENE,74,4.0,8.0,55,0.00,,,0.01,Wunderground v.1.15,2013-04-25 18:38:00,
2013-04-25 14:43:00,58.6,42.0,30.21,East,96,4.0,8.0,54,0.00,,,0.01,Wunderground v.1.15,2013-04-25 18:43:00,
2013-04-25 14:49:00,59.5,43.3,30.21,ESE,115,2.0,8.0,55,0.00,,,0.01,Wunderground v.1.15,2013-04-25 18:49:00,
2013-04-25 14:54:00,60.1,42.4,30.21,ESE,113,2.0,8.0,52,0.00,,,0.01,Wunderground v.1.15,2013-04-25 18:54:00,
2013-04-25 14:59:00,60.7,41.9,30.21,SE,125,2.0,8.0,50,0.00,,,0.01,Wunderground v.1.15,2013-04-25 18:59:00,
2013-04-25 15:04:00,61.0,40.6,30.21,SE,134,3.0,8.0,47,0.00,,,0.01,Wunderground v.1.15,2013-04-25 19:04:00,
2013-04-25 15:09:00,61.5,41.1,30.21,SE,139,3.0,8.0,47,0.00,,,0.01,Wunderground v.1.15,2013-04-25 19:09:00,
2013-04-25 15:15:00,62.0,42.1,30.21,ESE,117,3.0,5.0,48,0.00,,,0.01,Wunderground v.1.15,2013-04-25 19:15:00,
2013-04-25 15:20:00,62.2,43.3,30.21,SE,138,3.0,5.0,50,0.00,,,0.01,Wunderground v.1.15,2013-04-25 19:20:00,
2013-04-25 15:25:00,62.2,43.3,30.21,SE,139,4.0,5.0,50,0.00,,,0.01,Wunderground v.1.15,2013-04-25 19:25:00,
2013-04-25 15:30:00,62.3,44.4,30.21,SE,144,3.0,3.0,52,0.00,,,0.01,Wunderground v.1.15,2013-04-25 19:30:00,
2013-04-25 15:35:00,62.3,43.9,30.21,SE,124,3.0,4.0,51,0.00,,,0.01,Wunderground v.1.15,2013-04-25 19:35:00,
2013-04-25 15:40:00,62.2,44.3,30.21,SE,138,3.0,3.0,52,0.00,,,0.01,Wunderground v.1.15,2013-04-25 19:40:00,
2013-04-25 15:45:00,62.0,44.2,30.21,SE,134,3.0,6.0,52,0.00,,,0.01,Wunderground v.1.15,2013-04-25 19:45:00,
2013-04-25 15:50:00,61.7,44.4,30.21,ESE,119,3.0,3.0,53,0.00,,,0.01,Wunderground v.1.15,2013-04-25 19:50:00,
2013-04-25 15:55:00,61.4,43.6,30.21,SE,138,3.0,5.0,52,0.00,,,0.01,Wunderground v.1.15,2013-04-25 19:55:00,
2013-04-25 16:00:00,61.1,43.3,30.21,SE,138,4.0,4.0,52,0.00,,,0.01,Wunderground v.1.15,2013-04-25 20:00:00,
2013-04-25 16:05:00,61.1,43.8,30.21,SE,142,3.0,4.0,53,0.00,,,0.01,Wunderground v.1.15,2013-04-25 20:05:00,
2013-04-25 16:11:00,60.9,43.1,30.21,SE,132,3.0,5.0,52,0.00,,,0.01,Wunderground v.1.15,2013-04-25 20:11:00,
2013-04-25 16:16:00,60.6,42.4,30.21,SE,145,4.0,5.0,51,0.00,,,0.01,Wunderground v.1.15,2013-04-25 20:16:00,
2013-04-25 16:21:00,60.1,43.4,30.20,ESE,116,4.0,5.0,54,0.00,,,0.01,Wunderground v.1.15,2013-04-25 20:21:00,
2013-04-25 16:26:00,59.9,42.7,30.20,SE,144,4.0,6.0,53,0.00,,,0.01,Wunderground v.1.15,2013-04-25 20:26:00,
2013-04-25 16:31:00,59.7,42.5,30.20,SE,144,4.0,4.0,53,0.00,,,0.01,Wunderground v.1.15,2013-04-25 20:31:00,
2013-04-25 16:37:00,59.6,40.9,30.20,SE,140,4.0,6.0,50,0.00,,,0.01,Wunderground v.1.15,2013-04-25 20:37:00,
2013-04-25 16:42:00,59.6,41.4,30.20,SSW,208,4.0,5.0,51,0.00,,,0.01,Wunderground v.1.15,2013-04-25 20:42:00,
2013-04-25 16:47:00,59.6,41.9,30.20,SE,136,4.0,5.0,52,0.00,,,0.01,Wunderground v.1.15,2013-04-25 20:47:00,
2013-04-25 16:52:00,59.5,41.9,30.20,SE,144,4.0,4.0,52,0.00,,,0.01,Wunderground v.1.15,2013-04-25 20:52:00,
2013-04-25 16:57:00,59.6,42.4,30.20,SE,134,4.0,5.0,53,0.00,,,0.01,Wunderground v.1.15,2013-04-25 20:57:00,
2013-04-25 17:03:00,59.8,44.5,30.20,South,186,4.0,6.0,57,0.00,,,0.01,Wunderground v.1.15,2013-04-25 21:03:00,
2013-04-25 17:08:00,59.8,44.1,30.20,SE,142,4.0,6.0,56,0.00,,,0.01,Wunderground v.1.15,2013-04-25 21:08:00,
2013-04-25 17:13:00,59.6,42.9,30.20,SE,126,4.0,6.0,54,0.00,,,0.01,Wunderground v.1.15,2013-04-25 21:13:00,
2013-04-25 17:18:00,59.4,43.7,30.20,SE,142,4.0,6.0,56,0.00,,,0.01,Wunderground v.1.15,2013-04-25 21:18:00,
2013-04-25 17:23:00,59.2,43.5,30.20,South,169,4.0,6.0,56,0.00,,,0.01,Wunderground v.1.15,2013-04-25 21:23:00,
2013-04-25 17:29:00,59.2,43.0,30.20,SE,142,4.0,6.0,55,0.00,,,0.01,Wunderground v.1.15,2013-04-25 21:29:00,
2013-04-25 17:34:00,59.2,43.0,30.20,SSE,150,3.0,6.0,55,0.00,,,0.01,Wunderground v.1.15,2013-04-25 21:34:00,
2013-04-25 17:39:00,59.1,42.9,30.20,South,170,3.0,6.0,55,0.00,,,0.01,Wunderground v.1.15,2013-04-25 21:39:00,
2013-04-25 17:44:00,59.1,42.9,30.20,SSE,167,4.0,6.0,55,0.00,,,0.01,Wunderground v.1.15,2013-04-25 21:44:00,
2013-04-25 17:49:00,58.9,42.3,30.20,South,176,4.0,6.0,54,0.00,,,0.01,Wunderground v.1.15,2013-04-25 21:49:00,
2013-04-25 17:55:00,59.0,43.3,30.20,SSE,161,4.0,6.0,56,0.00,,,0.01,Wunderground v.1.15,2013-04-25 21:55:00,
2013-04-25 18:00:00,59.0,44.2,30.20,SSE,149,3.0,6.0,58,0.00,,,0.01,Wunderground v.1.15,2013-04-25 22:00:00,
2013-04-25 18:05:00,58.9,43.2,30.20,SSE,167,4.0,7.0,56,0.00,,,0.01,Wunderground v.1.15,2013-04-25 22:05:00,
2013-04-25 18:10:00,58.8,42.7,30.20,SSW,211,3.0,3.0,55,0.00,,,0.01,Wunderground v.1.15,2013-04-25 22:10:00,
2013-04-25 18:15:00,58.8,42.7,30.20,SE,136,3.0,7.0,55,0.00,,,0.01,Wunderground v.1.15,2013-04-25 22:15:00,
2013-04-25 18:21:00,58.7,43.0,30.20,South,184,3.0,7.0,56,0.00,,,0.01,Wunderground v.1.15,2013-04-25 22:21:00,
2013-04-25 18:26:00,58.7,42.6,30.20,SSE,163,3.0,7.0,55,0.00,,,0.01,Wunderground v.1.15,2013-04-25 22:26:00,
2013-04-25 18:31:00,58.8,43.1,30.20,SSE,165,2.0,7.0,56,0.00,,,0.01,Wunderground v.1.15,2013-04-25 22:31:00,
2013-04-25 18:36:00,58.8,43.1,30.20,SSE,167,2.0,7.0,56,0.00,,,0.01,Wunderground v.1.15,2013-04-25 22:36:00,
2013-04-25 18:41:00,58.8,43.6,30.20,SSE,147,2.0,7.0,57,0.00,,,0.01,Wunderground v.1.15,2013-04-25 22:41:00,
2013-04-25 18:47:00,58.7,43.5,30.20,SSE,161,2.0,7.0,57,0.00,,,0.01,Wunderground v.1.15,2013-04-25 22:47:00,
2013-04-25 18:52:00,58.8,43.6,30.21,SSE,154,2.0,7.0,57,0.00,,,0.01,Wunderground v.1.15,2013-04-25 22:52:00,
2013-04-25 18:57:00,58.7,43.5,30.21,SSE,154,2.0,7.0,57,0.00,,,0.01,Wunderground v.1.15,2013-04-25 22:57:00,
2013-04-25 19:02:00,58.6,43.9,30.21,SSE,161,2.0,7.0,58,0.00,,,0.01,Wunderground v.1.15,2013-04-25 23:02:00,
2013-04-25 19:07:00,58.4,42.3,30.21,South,182,3.0,7.0,55,0.00,,,0.01,Wunderground v.1.15,2013-04-25 23:07:00,
2013-04-25 19:13:00,58.2,43.0,30.21,South,182,2.0,3.0,57,0.00,,,0.01,Wunderground v.1.15,2013-04-25 23:13:00,
2013-04-25 19:18:00,58.0,43.3,30.22,South,178,2.0,5.0,58,0.00,,,0.01,Wunderground v.1.15,2013-04-25 23:18:00,
2013-04-25 19:23:00,57.8,43.1,30.22,South,180,2.0,3.0,58,0.00,,,0.01,Wunderground v.1.15,2013-04-25 23:23:00,
2013-04-25 19:28:00,57.5,41.9,30.22,SSW,198,2.0,4.0,56,0.00,,,0.01,Wunderground v.1.15,2013-04-25 23:28:00,
2013-04-25 19:33:00,57.3,41.7,30.22,SE,140,3.0,4.0,56,0.00,,,0.01,Wunderground v.1.15,2013-04-25 23:33:00,
2013-04-25 19:39:00,57.1,42.5,30.22,South,178,3.0,4.0,58,0.00,,,0.01,Wunderground v.1.15,2013-04-25 23:39:00,
2013-04-25 19:44:00,57.0,42.4,30.22,South,178,2.0,3.0,58,0.00,,,0.01,Wunderground v.1.15,2013-04-25 23:44:00,
2013-04-25 19:49:00,56.8,42.6,30.21,South,175,2.0,3.0,59,0.00,,,0.01,Wunderground v.1.15,2013-04-25 23:49:00,
2013-04-25 19:54:00,56.7,43.4,30.22,South,182,2.0,4.0,61,0.00,,,0.01,Wunderground v.1.15,2013-04-25 23:54:00,
2013-04-25 19:59:00,56.6,43.7,30.22,SSE,150,2.0,4.0,62,0.00,,,0.01,Wunderground v.1.15,2013-04-25 23:59:00,
2013-04-25 20:05:00,56.5,44.5,30.22,SSW,198,2.0,5.0,64,0.00,,,0.01,Wunderground v.1.15,2013-04-26 00:05:00,
2013-04-25 20:10:00,56.4,45.6,30.22,SSE,166,2.0,5.0,67,0.00,,,0.01,Wunderground v.1.15,2013-04-26 00:10:00,
2013-04-25 20:15:00,56.2,45.4,30.22,SSW,193,2.0,5.0,67,0.00,,,0.01,Wunderground v.1.15,2013-04-26 00:15:00,
2013-04-25 20:20:00,56.1,45.3,30.22,SSW,193,1.0,5.0,67,0.00,,,0.01,Wunderground v.1.15,2013-04-26 00:20:00,
2013-04-25 20:25:00,55.9,45.1,30.22,SSE,156,1.0,5.0,67,0.00,,,0.01,Wunderground v.1.15,2013-04-26 00:25:00,
2013-04-25 20:30:00,55.7,44.5,30.22,SSE,167,2.0,2.0,66,0.00,,,0.01,Wunderground v.1.15,2013-04-26 00:30:00,
2013-04-25 20:35:00,55.6,44.4,30.23,SSW,193,2.0,6.0,66,0.00,,,0.01,Wunderground v.1.15,2013-04-26 00:35:00,
2013-04-25 20:40:00,55.5,44.3,30.23,SSE,161,1.0,5.0,66,0.00,,,0.01,Wunderground v.1.15,2013-04-26 00:40:00,
2013-04-25 20:45:00,55.5,44.3,30.23,South,173,1.0,5.0,66,0.00,,,0.01,Wunderground v.1.15,2013-04-26 00:45:00,
2013-04-25 20:50:00,55.4,44.6,30.23,South,173,1.0,5.0,67,0.00,,,0.01,Wunderground v.1.15,2013-04-26 00:50:00,
2013-04-25 20:55:00,55.4,45.0,30.23,SSE,151,1.0,5.0,68,0.00,,,0.01,Wunderground v.1.15,2013-04-26 00:55:00,
2013-04-25 21:01:00,55.4,45.4,30.24,South,177,2.0,5.0,69,0.00,,,0.01,Wunderground v.1.15,2013-04-26 01:01:00,
2013-04-25 21:07:00,55.4,46.2,30.24,South,176,2.0,5.0,71,0.00,,,0.01,Wunderground v.1.15,2013-04-26 01:07:00,
2013-04-25 21:12:00,55.4,46.2,30.24,South,176,1.0,2.0,71,0.00,,,0.01,Wunderground v.1.15,2013-04-26 01:12:00,
2013-04-25 21:18:00,55.4,46.5,30.24,SSE,167,1.0,3.0,72,0.00,,,0.01,Wunderground v.1.15,2013-04-26 01:18:00,
2013-04-25 21:24:00,55.4,46.5,30.25,SW,217,2.0,2.0,72,0.00,,,0.01,Wunderground v.1.15,2013-04-26 01:24:00,
2013-04-25 21:29:00,55.3,46.8,30.25,SW,217,1.0,2.0,73,0.00,,,0.01,Wunderground v.1.15,2013-04-26 01:29:00,
2013-04-25 21:35:00,55.2,46.7,30.25,SSE,156,0.0,2.0,73,0.00,,,0.01,Wunderground v.1.15,2013-04-26 01:35:00,
2013-04-25 21:41:00,55.0,46.5,30.25,South,169,1.0,3.0,73,0.00,,,0.01,Wunderground v.1.15,2013-04-26 01:41:00,
2013-04-25 21:47:00,54.8,46.3,30.25,SE,142,1.0,1.0,73,0.00,,,0.01,Wunderground v.1.15,2013-04-26 01:47:00,
2013-04-25 21:52:00,54.6,46.5,30.26,SE,142,0.0,3.0,74,0.00,,,0.01,Wunderground v.1.15,2013-04-26 01:52:00,
2013-04-25 21:58:00,54.3,46.2,30.26,SE,142,0.0,3.0,74,0.00,,,0.01,Wunderground v.1.15,2013-04-26 01:58:00,
2013-04-25 22:04:00,54.1,46.3,30.26,SE,142,0.0,3.0,75,0.00,,,0.01,Wunderground v.1.15,2013-04-26 02:04:00,
2013-04-25 22:10:00,53.9,46.5,30.26,South,183,1.0,4.0,76,0.00,,,0.01,Wunderground v.1.15,2013-04-26 02:10:00,
2013-04-25 22:16:00,53.9,46.9,30.26,South,186,2.0,4.0,77,0.00,,,0.01,Wunderground v.1.15,2013-04-26 02:16:00,
2013-04-25 22:22:00,54.0,47.3,30.26,South,183,2.0,3.0,78,0.00,,,0.01,Wunderground v.1.15,2013-04-26 02:22:00,
2013-04-25 22:28:00,54.3,47.9,30.26,South,176,2.0,4.0,79,0.00,,,0.01,Wunderground v.1.15,2013-04-26 02:28:00,
2013-04-25 22:33:00,54.4,48.0,30.26,South,178,2.0,4.0,79,0.00,,,0.01,Wunderground v.1.15,2013-04-26 02:33:00,
2013-04-25 22:39:00,54.4,47.7,30.27,SW,218,2.0,4.0,78,0.00,,,0.01,Wunderground v.1.15,2013-04-26 02:39:00,
2013-04-25 22:45:00,54.2,46.4,30.27,SSW,193,1.0,1.0,75,0.00,,,0.01,Wunderground v.1.15,2013-04-26 02:45:00,
2013-04-25 22:51:00,54.1,46.0,30.27,SSW,193,0.0,1.0,74,0.00,,,0.01,Wunderground v.1.15,2013-04-26 02:51:00,
2013-04-25 22:57:00,53.9,45.4,30.27,SSW,193,0.0,1.0,73,0.00,,,0.01,Wunderground v.1.15,2013-04-26 02:57:00,
2013-04-25 23:03:00,53.7,44.9,30.28,SSW,193,0.0,2.0,72,0.00,,,0.01,Wunderground v.1.15,2013-04-26 03:03:00,
2013-04-25 23:09:00,53.5,44.7,30.28,SSW,193,0.0,3.0,72,0.00,,,0.01,Wunderground v.1.15,2013-04-26 03:09:00,
2013-04-25 23:14:00,53.3,43.8,30.28,SSW,198,1.0,2.0,70,0.00,,,0.01,Wunderground v.1.15,2013-04-26 03:14:00,
2013-04-25 23:20:00,53.1,43.6,30.28,SSW,198,0.0,2.0,70,0.00,,,0.01,Wunderground v.1.15,2013-04-26 03:20:00,
2013-04-25 23:26:00,52.8,42.9,30.28,SSW,198,0.0,2.0,69,0.00,,,0.01,Wunderground v.1.15,2013-04-26 03:26:00,
2013-04-25 23:32:00,52.5,41.9,30.28,SSW,198,0.0,2.0,67,0.00,,,0.01,Wunderground v.1.15,2013-04-26 03:32:00,
2013-04-25 23:38:00,52.3,41.7,30.28,SSW,198,0.0,2.0,67,0.00,,,0.01,Wunderground v.1.15,2013-04-26 03:38:00,
2013-04-25 23:44:00,52.1,41.5,30.28,SSW,198,1.0,2.0,67,0.00,,,0.01,Wunderground v.1.15,2013-04-26 03:44:00,
2013-04-25 23:49:00,51.9,41.3,30.28,SW,222,1.0,2.0,67,0.00,,,0.01,Wunderground v.1.15,2013-04-26 03:49:00,
2013-04-25 23:55:00,51.7,40.7,30.28,WSW,240,1.0,4.0,66,0.00,,,0.01,Wunderground v.1.15,2013-04-26 03:55:00,